Terminal Aerodrome Forecast
Issued by NWS

Home | Current Version | Previous Version | Text Only | Print | Product List | Glossary On
Versions: 1 2 3 4 5 6 7 8 9 10 11 12 13 14 15 16 17 18 19
996
FTUS41 KCLE 300343 AAB
TAFFDY
TAF AMD
KFDY 300343Z 3004/3024 06015G25KT P6SM OVC060
      TEMPO 3004/3008 3SM TSRA BR OVC012CB
     FM300900 11012KT 2SM BR OVC007
     FM301200 11010KT P6SM OVC015
     FM301500 20015G25KT P6SM OVC015
     FM301900 20020G30KT P6SM BKN050
     FM302300 20015G25KT 4SM -TSRA OVC025CB=

USA.gov is the U.S. government's official web portal to all federal, state and local government web resources and services.